sensor_id;sensor_type;location;lat;lon;timestamp;P1;durP1;ratioP1;P2;durP2;ratioP2
21827;SDS011;11076;47.942;11.804;2022-10-16T00:03:16;1.92;;;1.75;;
21827;SDS011;11076;47.942;11.804;2022-10-16T00:08:18;4.57;;;1.95;;
21827;SDS011;11076;47.942;11.804;2022-10-16T00:13:20;4.00;;;1.90;;
21827;SDS011;11076;47.942;11.804;2022-10-16T00:18:23;6.13;;;2.35;;
21827;SDS011;11076;47.942;11.804;2022-10-16T00:23:26;4.60;;;2.00;;
21827;SDS011;11076;47.942;11.804;2022-10-16T00:28:29;2.47;;;1.90;;
21827;SDS011;11076;47.942;11.804;2022-10-16T00:33:32;3.55;;;2.10;;
21827;SDS011;11076;47.942;11.804;2022-10-16T00:38:35;1.98;;;1.88;;
21827;SDS011;11076;47.942;11.804;2022-10-16T00:43:41;2.53;;;2.10;;
21827;SDS011;11076;47.942;11.804;2022-10-16T00:48:53;2.78;;;1.90;;
21827;SDS011;11076;47.942;11.804;2022-10-16T00:53:56;4.35;;;1.73;;
21827;SDS011;11076;47.942;11.804;2022-10-16T00:58:59;4.65;;;1.67;;
21827;SDS011;11076;47.942;11.804;2022-10-16T01:04:06;4.93;;;1.83;;
21827;SDS011;11076;47.942;11.804;2022-10-16T01:14:53;7.57;;;1.60;;
21827;SDS011;11076;47.942;11.804;2022-10-16T01:30:53;5.50;;;1.75;;
21827;SDS011;11076;47.942;11.804;2022-10-16T01:36:02;3.00;;;1.55;;
21827;SDS011;11076;47.942;11.804;2022-10-16T01:41:14;2.00;;;1.42;;
21827;SDS011;11076;47.942;11.804;2022-10-16T01:46:21;7.65;;;2.00;;
21827;SDS011;11076;47.942;11.804;2022-10-16T01:51:26;3.40;;;1.33;;
21827;SDS011;11076;47.942;11.804;2022-10-16T01:56:31;4.47;;;1.40;;
21827;SDS011;11076;47.942;11.804;2022-10-16T02:01:36;1.50;;;1.15;;
21827;SDS011;11076;47.942;11.804;2022-10-16T02:06:41;2.85;;;1.20;;
21827;SDS011;11076;47.942;11.804;2022-10-16T02:11:43;2.45;;;1.33;;
21827;SDS011;11076;47.942;11.804;2022-10-16T02:16:46;1.33;;;1.23;;
21827;SDS011;11076;47.942;11.804;2022-10-16T02:21:50;2.60;;;1.60;;
21827;SDS011;11076;47.942;11.804;2022-10-16T02:32:44;2.35;;;2.00;;
21827;SDS011;11076;47.942;11.804;2022-10-16T02:37:49;11.98;;;2.78;;
21827;SDS011;11076;47.942;11.804;2022-10-16T02:42:54;6.00;;;2.17;;
21827;SDS011;11076;47.942;11.804;2022-10-16T02:47:57;6.57;;;2.03;;
21827;SDS011;11076;47.942;11.804;2022-10-16T02:52:59;8.98;;;1.55;;
21827;SDS011;11076;47.942;11.804;2022-10-16T02:58:02;2.15;;;1.85;;
21827;SDS011;11076;47.942;11.804;2022-10-16T03:03:05;2.65;;;1.65;;
21827;SDS011;11076;47.942;11.804;2022-10-16T03:08:07;2.17;;;2.03;;
21827;SDS011;11076;47.942;11.804;2022-10-16T03:13:10;7.72;;;1.65;;
21827;SDS011;11076;47.942;11.804;2022-10-16T03:18:12;4.22;;;2.10;;
21827;SDS011;11076;47.942;11.804;2022-10-16T03:23:14;7.00;;;2.17;;
21827;SDS011;11076;47.942;11.804;2022-10-16T03:28:17;3.88;;;1.83;;
21827;SDS011;11076;47.942;11.804;2022-10-16T03:33:19;4.43;;;1.98;;
21827;SDS011;11076;47.942;11.804;2022-10-16T03:38:22;4.75;;;1.70;;
21827;SDS011;11076;47.942;11.804;2022-10-16T03:43:24;2.38;;;1.80;;
21827;SDS011;11076;47.942;11.804;2022-10-16T03:48:26;2.33;;;2.10;;
21827;SDS011;11076;47.942;11.804;2022-10-16T03:53:29;11.38;;;1.98;;
21827;SDS011;11076;47.942;11.804;2022-10-16T03:58:31;2.97;;;1.90;;
21827;SDS011;11076;47.942;11.804;2022-10-16T04:03:33;4.93;;;1.65;;
21827;SDS011;11076;47.942;11.804;2022-10-16T04:08:36;9.02;;;1.85;;
21827;SDS011;11076;47.942;11.804;2022-10-16T04:13:38;5.35;;;2.22;;
21827;SDS011;11076;47.942;11.804;2022-10-16T04:18:41;10.73;;;2.08;;
21827;SDS011;11076;47.942;11.804;2022-10-16T04:23:43;3.38;;;1.77;;
21827;SDS011;11076;47.942;11.804;2022-10-16T04:28:45;7.28;;;1.60;;
21827;SDS011;11076;47.942;11.804;2022-10-16T04:33:48;2.75;;;2.40;;
21827;SDS011;11076;47.942;11.804;2022-10-16T04:38:50;2.95;;;1.90;;
21827;SDS011;11076;47.942;11.804;2022-10-16T04:43:52;5.57;;;2.40;;
21827;SDS011;11076;47.942;11.804;2022-10-16T04:48:55;2.05;;;1.67;;
21827;SDS011;11076;47.942;11.804;2022-10-16T04:53:57;3.97;;;1.73;;
21827;SDS011;11076;47.942;11.804;2022-10-16T04:59:00;3.83;;;1.55;;
21827;SDS011;11076;47.942;11.804;2022-10-16T05:04:02;1.80;;;1.70;;
21827;SDS011;11076;47.942;11.804;2022-10-16T05:09:04;3.53;;;1.90;;
21827;SDS011;11076;47.942;11.804;2022-10-16T05:14:07;4.07;;;1.63;;
21827;SDS011;11076;47.942;11.804;2022-10-16T05:19:09;4.80;;;1.88;;
21827;SDS011;11076;47.942;11.804;2022-10-16T05:24:28;4.32;;;2.13;;
21827;SDS011;11076;47.942;11.804;2022-10-16T05:29:30;1.90;;;1.60;;
21827;SDS011;11076;47.942;11.804;2022-10-16T05:34:33;3.40;;;1.63;;
21827;SDS011;11076;47.942;11.804;2022-10-16T05:39:36;4.70;;;1.85;;
21827;SDS011;11076;47.942;11.804;2022-10-16T05:44:38;3.88;;;1.85;;
21827;SDS011;11076;47.942;11.804;2022-10-16T05:49:41;2.70;;;2.25;;
21827;SDS011;11076;47.942;11.804;2022-10-16T05:54:43;6.30;;;2.78;;
21827;SDS011;11076;47.942;11.804;2022-10-16T05:59:46;2.60;;;1.92;;
21827;SDS011;11076;47.942;11.804;2022-10-16T06:04:48;3.17;;;2.00;;
21827;SDS011;11076;47.942;11.804;2022-10-16T06:09:51;2.78;;;2.33;;
21827;SDS011;11076;47.942;11.804;2022-10-16T06:14:54;3.28;;;2.35;;
21827;SDS011;11076;47.942;11.804;2022-10-16T06:19:56;3.35;;;1.80;;
21827;SDS011;11076;47.942;11.804;2022-10-16T06:24:59;10.65;;;1.65;;
21827;SDS011;11076;47.942;11.804;2022-10-16T06:30:01;2.08;;;1.77;;
21827;SDS011;11076;47.942;11.804;2022-10-16T06:35:05;1.45;;;1.40;;
21827;SDS011;11076;47.942;11.804;2022-10-16T06:40:08;4.57;;;1.90;;
21827;SDS011;11076;47.942;11.804;2022-10-16T06:45:10;6.53;;;2.10;;
21827;SDS011;11076;47.942;11.804;2022-10-16T06:50:13;4.57;;;1.50;;
21827;SDS011;11076;47.942;11.804;2022-10-16T06:55:15;3.88;;;1.88;;
21827;SDS011;11076;47.942;11.804;2022-10-16T07:00:18;3.17;;;1.83;;
21827;SDS011;11076;47.942;11.804;2022-10-16T07:05:21;2.05;;;1.85;;
21827;SDS011;11076;47.942;11.804;2022-10-16T07:10:23;2.38;;;1.90;;
21827;SDS011;11076;47.942;11.804;2022-10-16T07:15:26;5.22;;;1.50;;
21827;SDS011;11076;47.942;11.804;2022-10-16T07:20:29;3.22;;;1.63;;
21827;SDS011;11076;47.942;11.804;2022-10-16T07:25:31;1.85;;;1.75;;
21827;SDS011;11076;47.942;11.804;2022-10-16T07:30:34;4.00;;;1.75;;
21827;SDS011;11076;47.942;11.804;2022-10-16T07:35:47;2.55;;;2.35;;
21827;SDS011;11076;47.942;11.804;2022-10-16T07:40:55;4.40;;;1.63;;
21827;SDS011;11076;47.942;11.804;2022-10-16T07:46:01;4.93;;;1.77;;
21827;SDS011;11076;47.942;11.804;2022-10-16T07:51:05;8.23;;;5.38;;
21827;SDS011;11076;47.942;11.804;2022-10-16T07:56:09;1.85;;;1.73;;
21827;SDS011;11076;47.942;11.804;2022-10-16T08:01:13;6.10;;;1.50;;
21827;SDS011;11076;47.942;11.804;2022-10-16T08:06:18;5.05;;;1.75;;
21827;SDS011;11076;47.942;11.804;2022-10-16T08:11:22;4.53;;;1.77;;
21827;SDS011;11076;47.942;11.804;2022-10-16T08:16:25;2.28;;;1.83;;
21827;SDS011;11076;47.942;11.804;2022-10-16T08:21:28;4.18;;;1.92;;
21827;SDS011;11076;47.942;11.804;2022-10-16T08:26:30;2.25;;;1.58;;
21827;SDS011;11076;47.942;11.804;2022-10-16T08:31:32;2.50;;;1.60;;
21827;SDS011;11076;47.942;11.804;2022-10-16T08:36:35;2.20;;;1.50;;
21827;SDS011;11076;47.942;11.804;2022-10-16T08:52:15;1.50;;;1.33;;
21827;SDS011;11076;47.942;11.804;2022-10-16T08:57:21;3.42;;;1.40;;
21827;SDS011;11076;47.942;11.804;2022-10-16T09:02:38;2.65;;;1.30;;
21827;SDS011;11076;47.942;11.804;2022-10-16T09:14:00;2.60;;;1.30;;
21827;SDS011;11076;47.942;11.804;2022-10-16T09:19:23;3.58;;;1.75;;
21827;SDS011;11076;47.942;11.804;2022-10-16T09:24:39;7.75;;;1.80;;
21827;SDS011;11076;47.942;11.804;2022-10-16T09:29:42;1.55;;;1.45;;
21827;SDS011;11076;47.942;11.804;2022-10-16T09:34:48;2.63;;;1.70;;
21827;SDS011;11076;47.942;11.804;2022-10-16T09:39:54;1.30;;;1.20;;
21827;SDS011;11076;47.942;11.804;2022-10-16T09:44:57;1.45;;;1.35;;
21827;SDS011;11076;47.942;11.804;2022-10-16T09:50:00;2.70;;;1.10;;
21827;SDS011;11076;47.942;11.804;2022-10-16T09:55:14;2.70;;;1.67;;
21827;SDS011;11076;47.942;11.804;2022-10-16T10:00:19;1.80;;;1.15;;
21827;SDS011;11076;47.942;11.804;2022-10-16T10:05:24;1.70;;;1.27;;
21827;SDS011;11076;47.942;11.804;2022-10-16T10:10:28;4.05;;;1.30;;
21827;SDS011;11076;47.942;11.804;2022-10-16T10:15:34;3.90;;;1.52;;
21827;SDS011;11076;47.942;11.804;2022-10-16T10:20:43;1.90;;;1.38;;
21827;SDS011;11076;47.942;11.804;2022-10-16T10:46:49;1.42;;;1.33;;
21827;SDS011;11076;47.942;11.804;2022-10-16T10:57:25;1.00;;;1.00;;
21827;SDS011;11076;47.942;11.804;2022-10-16T11:07:49;1.20;;;0.50;;
21827;SDS011;11076;47.942;11.804;2022-10-16T11:23:53;0.82;;;0.80;;
21827;SDS011;11076;47.942;11.804;2022-10-16T11:29:19;2.70;;;0.80;;
21827;SDS011;11076;47.942;11.804;2022-10-16T11:34:36;4.35;;;0.77;;
21827;SDS011;11076;47.942;11.804;2022-10-16T11:39:45;4.97;;;0.60;;
21827;SDS011;11076;47.942;11.804;2022-10-16T11:44:54;0.50;;;0.50;;
21827;SDS011;11076;47.942;11.804;2022-10-16T11:55:39;0.60;;;0.60;;
21827;SDS011;11076;47.942;11.804;2022-10-16T12:00:47;3.30;;;0.52;;
21827;SDS011;11076;47.942;11.804;2022-10-16T12:06:39;0.50;;;0.50;;
21827;SDS011;11076;47.942;11.804;2022-10-16T12:16:30;0.50;;;0.45;;
21827;SDS011;11076;47.942;11.804;2022-10-16T12:21:32;1.83;;;0.73;;
21827;SDS011;11076;47.942;11.804;2022-10-16T12:26:37;0.55;;;0.52;;
21827;SDS011;11076;47.942;11.804;2022-10-16T12:31:47;1.05;;;0.50;;
21827;SDS011;11076;47.942;11.804;2022-10-16T12:36:55;2.60;;;0.57;;
21827;SDS011;11076;47.942;11.804;2022-10-16T12:47:47;0.47;;;0.47;;
21827;SDS011;11076;47.942;11.804;2022-10-16T12:52:51;0.50;;;0.50;;
21827;SDS011;11076;47.942;11.804;2022-10-16T13:13:22;1.65;;;0.50;;
21827;SDS011;11076;47.942;11.804;2022-10-16T13:23:57;0.50;;;0.50;;
21827;SDS011;11076;47.942;11.804;2022-10-16T13:29:20;0.40;;;0.40;;
21827;SDS011;11076;47.942;11.804;2022-10-16T13:34:24;0.60;;;0.60;;
21827;SDS011;11076;47.942;11.804;2022-10-16T13:39:28;0.75;;;0.47;;
21827;SDS011;11076;47.942;11.804;2022-10-16T13:44:53;0.47;;;0.47;;
21827;SDS011;11076;47.942;11.804;2022-10-16T13:49:59;0.77;;;0.77;;
21827;SDS011;11076;47.942;11.804;2022-10-16T13:55:09;0.60;;;0.60;;
21827;SDS011;11076;47.942;11.804;2022-10-16T14:05:22;0.50;;;0.50;;
21827;SDS011;11076;47.942;11.804;2022-10-16T14:10:27;0.50;;;0.50;;
21827;SDS011;11076;47.942;11.804;2022-10-16T14:15:33;1.55;;;0.88;;
21827;SDS011;11076;47.942;11.804;2022-10-16T14:20:38;1.63;;;1.00;;
21827;SDS011;11076;47.942;11.804;2022-10-16T14:25:40;2.85;;;1.10;;
21827;SDS011;11076;47.942;11.804;2022-10-16T14:36:12;1.25;;;1.08;;
21827;SDS011;11076;47.942;11.804;2022-10-16T14:41:16;1.65;;;1.55;;
21827;SDS011;11076;47.942;11.804;2022-10-16T14:46:34;1.98;;;1.27;;
21827;SDS011;11076;47.942;11.804;2022-10-16T14:51:39;1.60;;;1.42;;
21827;SDS011;11076;47.942;11.804;2022-10-16T14:56:50;2.55;;;1.40;;
21827;SDS011;11076;47.942;11.804;2022-10-16T15:01:55;1.65;;;1.40;;
21827;SDS011;11076;47.942;11.804;2022-10-16T15:06:58;2.78;;;1.33;;
21827;SDS011;11076;47.942;11.804;2022-10-16T15:12:00;1.65;;;1.50;;
21827;SDS011;11076;47.942;11.804;2022-10-16T15:17:02;2.00;;;1.33;;
21827;SDS011;11076;47.942;11.804;2022-10-16T15:22:05;4.97;;;2.83;;
21827;SDS011;11076;47.942;11.804;2022-10-16T15:27:07;3.15;;;1.50;;
21827;SDS011;11076;47.942;11.804;2022-10-16T15:32:10;8.32;;;1.77;;
21827;SDS011;11076;47.942;11.804;2022-10-16T15:37:12;2.83;;;2.45;;
21827;SDS011;11076;47.942;11.804;2022-10-16T15:42:15;1.48;;;1.38;;
21827;SDS011;11076;47.942;11.804;2022-10-16T15:47:18;1.85;;;1.67;;
21827;SDS011;11076;47.942;11.804;2022-10-16T15:52:20;8.18;;;4.30;;
21827;SDS011;11076;47.942;11.804;2022-10-16T15:57:22;6.95;;;2.55;;
21827;SDS011;11076;47.942;11.804;2022-10-16T16:02:25;3.20;;;1.60;;
21827;SDS011;11076;47.942;11.804;2022-10-16T16:07:28;2.92;;;1.33;;
21827;SDS011;11076;47.942;11.804;2022-10-16T16:12:30;5.03;;;1.70;;
21827;SDS011;11076;47.942;11.804;2022-10-16T16:17:34;3.97;;;1.70;;
21827;SDS011;11076;47.942;11.804;2022-10-16T16:22:37;5.00;;;1.63;;
21827;SDS011;11076;47.942;11.804;2022-10-16T16:27:40;4.75;;;2.15;;
21827;SDS011;11076;47.942;11.804;2022-10-16T16:32:43;2.08;;;1.60;;
21827;SDS011;11076;47.942;11.804;2022-10-16T16:37:46;2.75;;;1.63;;
21827;SDS011;11076;47.942;11.804;2022-10-16T16:42:49;5.35;;;2.33;;
21827;SDS011;11076;47.942;11.804;2022-10-16T16:47:51;2.35;;;2.05;;
21827;SDS011;11076;47.942;11.804;2022-10-16T16:52:53;3.30;;;2.25;;
21827;SDS011;11076;47.942;11.804;2022-10-16T16:57:56;5.70;;;2.08;;
21827;SDS011;11076;47.942;11.804;2022-10-16T17:03:01;6.22;;;2.20;;
21827;SDS011;11076;47.942;11.804;2022-10-16T17:08:06;4.60;;;2.33;;
21827;SDS011;11076;47.942;11.804;2022-10-16T17:13:09;8.40;;;2.10;;
21827;SDS011;11076;47.942;11.804;2022-10-16T17:18:11;4.20;;;1.98;;
21827;SDS011;11076;47.942;11.804;2022-10-16T17:23:14;2.28;;;1.83;;
21827;SDS011;11076;47.942;11.804;2022-10-16T17:28:18;5.57;;;1.88;;
21827;SDS011;11076;47.942;11.804;2022-10-16T17:33:21;1.88;;;1.70;;
21827;SDS011;11076;47.942;11.804;2022-10-16T17:38:23;8.50;;;2.38;;
21827;SDS011;11076;47.942;11.804;2022-10-16T17:43:26;6.60;;;2.80;;
21827;SDS011;11076;47.942;11.804;2022-10-16T17:48:28;2.20;;;2.00;;
21827;SDS011;11076;47.942;11.804;2022-10-16T17:53:31;4.53;;;2.55;;
21827;SDS011;11076;47.942;11.804;2022-10-16T17:58:33;2.38;;;2.17;;
21827;SDS011;11076;47.942;11.804;2022-10-16T18:03:36;9.23;;;2.28;;
21827;SDS011;11076;47.942;11.804;2022-10-16T18:08:38;2.90;;;1.88;;
21827;SDS011;11076;47.942;11.804;2022-10-16T18:13:40;6.03;;;2.20;;
21827;SDS011;11076;47.942;11.804;2022-10-16T18:18:43;5.68;;;1.83;;
21827;SDS011;11076;47.942;11.804;2022-10-16T18:23:46;3.47;;;2.10;;
21827;SDS011;11076;47.942;11.804;2022-10-16T18:28:53;6.20;;;2.00;;
21827;SDS011;11076;47.942;11.804;2022-10-16T18:33:57;4.22;;;1.92;;
21827;SDS011;11076;47.942;11.804;2022-10-16T18:39:01;3.78;;;2.15;;
21827;SDS011;11076;47.942;11.804;2022-10-16T18:44:10;10.55;;;2.25;;
21827;SDS011;11076;47.942;11.804;2022-10-16T18:49:14;9.60;;;2.75;;
21827;SDS011;11076;47.942;11.804;2022-10-16T18:54:16;4.47;;;1.85;;
21827;SDS011;11076;47.942;11.804;2022-10-16T18:59:18;8.10;;;2.30;;
21827;SDS011;11076;47.942;11.804;2022-10-16T19:04:22;3.10;;;2.63;;
21827;SDS011;11076;47.942;11.804;2022-10-16T19:09:24;9.38;;;1.65;;
21827;SDS011;11076;47.942;11.804;2022-10-16T19:14:27;5.88;;;1.90;;
21827;SDS011;11076;47.942;11.804;2022-10-16T19:19:31;3.13;;;1.92;;
21827;SDS011;11076;47.942;11.804;2022-10-16T19:24:33;8.98;;;2.45;;
21827;SDS011;11076;47.942;11.804;2022-10-16T19:29:36;3.70;;;2.08;;
21827;SDS011;11076;47.942;11.804;2022-10-16T19:34:38;10.98;;;5.05;;
21827;SDS011;11076;47.942;11.804;2022-10-16T19:39:40;19.23;;;7.88;;
21827;SDS011;11076;47.942;11.804;2022-10-16T19:44:43;75.88;;;25.10;;
21827;SDS011;11076;47.942;11.804;2022-10-16T19:49:45;25.20;;;12.38;;
21827;SDS011;11076;47.942;11.804;2022-10-16T19:54:48;28.73;;;11.90;;
21827;SDS011;11076;47.942;11.804;2022-10-16T19:59:51;26.20;;;10.73;;
21827;SDS011;11076;47.942;11.804;2022-10-16T20:04:54;19.00;;;7.78;;
21827;SDS011;11076;47.942;11.804;2022-10-16T20:09:56;16.08;;;7.07;;
21827;SDS011;11076;47.942;11.804;2022-10-16T20:14:58;10.82;;;4.68;;
21827;SDS011;11076;47.942;11.804;2022-10-16T20:20:01;9.90;;;2.92;;
21827;SDS011;11076;47.942;11.804;2022-10-16T20:25:03;11.63;;;3.38;;
21827;SDS011;11076;47.942;11.804;2022-10-16T20:30:06;8.57;;;3.63;;
21827;SDS011;11076;47.942;11.804;2022-10-16T20:35:09;4.78;;;2.85;;
21827;SDS011;11076;47.942;11.804;2022-10-16T20:40:12;7.97;;;2.47;;
21827;SDS011;11076;47.942;11.804;2022-10-16T20:45:14;5.65;;;2.65;;
21827;SDS011;11076;47.942;11.804;2022-10-16T20:50:16;9.00;;;2.58;;
21827;SDS011;11076;47.942;11.804;2022-10-16T20:55:19;5.43;;;2.42;;
21827;SDS011;11076;47.942;11.804;2022-10-16T21:00:21;9.40;;;2.47;;
21827;SDS011;11076;47.942;11.804;2022-10-16T21:05:24;5.80;;;2.67;;
21827;SDS011;11076;47.942;11.804;2022-10-16T21:10:29;7.38;;;2.80;;
21827;SDS011;11076;47.942;11.804;2022-10-16T21:15:32;4.50;;;2.40;;
21827;SDS011;11076;47.942;11.804;2022-10-16T21:20:34;4.47;;;2.50;;
21827;SDS011;11076;47.942;11.804;2022-10-16T21:25:36;3.55;;;2.20;;
21827;SDS011;11076;47.942;11.804;2022-10-16T21:30:39;5.55;;;2.45;;
21827;SDS011;11076;47.942;11.804;2022-10-16T21:35:41;7.93;;;2.55;;
21827;SDS011;11076;47.942;11.804;2022-10-16T21:40:44;6.80;;;2.42;;
21827;SDS011;11076;47.942;11.804;2022-10-16T21:45:46;3.78;;;2.38;;
21827;SDS011;11076;47.942;11.804;2022-10-16T21:50:48;3.55;;;2.55;;
21827;SDS011;11076;47.942;11.804;2022-10-16T21:55:51;2.80;;;2.42;;
21827;SDS011;11076;47.942;11.804;2022-10-16T22:00:53;4.00;;;2.25;;
21827;SDS011;11076;47.942;11.804;2022-10-16T22:05:59;2.60;;;2.30;;
21827;SDS011;11076;47.942;11.804;2022-10-16T22:16:11;6.88;;;2.70;;
21827;SDS011;11076;47.942;11.804;2022-10-16T22:21:14;9.02;;;2.55;;
21827;SDS011;11076;47.942;11.804;2022-10-16T22:26:16;2.90;;;2.35;;
21827;SDS011;11076;47.942;11.804;2022-10-16T22:31:19;4.13;;;2.60;;
21827;SDS011;11076;47.942;11.804;2022-10-16T22:36:22;4.63;;;2.17;;
21827;SDS011;11076;47.942;11.804;2022-10-16T22:41:25;2.95;;;2.28;;
21827;SDS011;11076;47.942;11.804;2022-10-16T22:46:28;10.30;;;2.28;;
21827;SDS011;11076;47.942;11.804;2022-10-16T22:51:31;2.25;;;1.95;;
21827;SDS011;11076;47.942;11.804;2022-10-16T22:56:34;6.60;;;2.47;;
21827;SDS011;11076;47.942;11.804;2022-10-16T23:01:40;6.90;;;2.10;;
21827;SDS011;11076;47.942;11.804;2022-10-16T23:06:43;2.80;;;2.28;;
21827;SDS011;11076;47.942;11.804;2022-10-16T23:11:45;4.40;;;2.25;;
21827;SDS011;11076;47.942;11.804;2022-10-16T23:16:48;2.67;;;2.35;;
21827;SDS011;11076;47.942;11.804;2022-10-16T23:21:50;6.78;;;2.20;;
21827;SDS011;11076;47.942;11.804;2022-10-16T23:26:53;4.22;;;2.22;;
21827;SDS011;11076;47.942;11.804;2022-10-16T23:31:55;2.55;;;2.10;;
21827;SDS011;11076;47.942;11.804;2022-10-16T23:36:58;3.90;;;1.88;;
21827;SDS011;11076;47.942;11.804;2022-10-16T23:42:00;2.88;;;1.90;;
21827;SDS011;11076;47.942;11.804;2022-10-16T23:47:03;2.08;;;1.52;;
21827;SDS011;11076;47.942;11.804;2022-10-16T23:52:05;3.72;;;1.67;;
21827;SDS011;11076;47.942;11.804;2022-10-16T23:57:08;4.10;;;1.95;;
